Time;durP1;ratioP1;P1;durP2;ratioP2;P2;SDS_P1;SDS_P2;PMS_P1;PMS_P2;Temp;Humidity;BMP_temperature;BMP_pressure;BME280_temperature;BME280_humidity;BME280_pressure;Samples;Min_cycle;Max_cycle;Signal;HPM_P1;HPM_P2
2023/05/30 00:01:54;;;;;;;12.38;3.25;;;10.90;99.90;;;;;;5093157;28;20044;-62
2023/05/30 00:04:21;;;;;;;9.23;3.72;;;10.90;99.90;;;;;;5092366;28;20063;-62
2023/05/30 00:06:48;;;;;;;11.30;3.35;;;10.90;99.90;;;;;;5092925;28;20051;-62
2023/05/30 00:09:14;;;;;;;12.43;3.38;;;10.90;99.90;;;;;;5093140;28;20055;-63
2023/05/30 00:11:41;;;;;;;10.10;3.47;;;10.90;99.90;;;;;;5092927;28;20044;-62
2023/05/30 00:14:08;;;;;;;9.82;3.53;;;10.90;99.90;;;;;;5093057;28;20052;-61
2023/05/30 00:16:35;;;;;;;10.90;3.20;;;10.90;99.90;;;;;;5092629;28;20086;-62
2023/05/30 00:19:04;;;;;;;8.65;3.20;;;10.90;99.90;;;;;;5093281;28;20142;-63
2023/05/30 00:21:31;;;;;;;13.70;3.47;;;11.00;99.90;;;;;;5092577;28;20507;-63
2023/05/30 00:23:58;;;;;;;9.88;3.55;;;11.00;99.90;;;;;;5093413;28;20059;-63
2023/05/30 00:26:26;;;;;;;13.88;3.50;;;11.00;99.90;;;;;;5092590;28;20040;-63
2023/05/30 00:28:52;;;;;;;11.70;3.38;;;11.00;99.90;;;;;;5092530;28;20052;-62
2023/05/30 00:31:18;;;;;;;11.68;3.25;;;11.00;99.90;;;;;;5092678;28;20048;-62
2023/05/30 00:33:45;;;;;;;10.88;3.55;;;11.10;99.90;;;;;;5092633;28;20093;-61
2023/05/30 00:36:12;;;;;;;13.95;3.90;;;11.10;99.90;;;;;;5092336;28;20044;-63
2023/05/30 00:38:40;;;;;;;12.50;3.75;;;11.10;99.90;;;;;;5092823;28;20424;-62
2023/05/30 00:41:06;;;;;;;12.80;3.90;;;11.10;99.90;;;;;;5092494;28;20106;-63
2023/05/30 00:43:33;;;;;;;12.82;4.15;;;11.10;99.90;;;;;;5092615;28;20464;-63
2023/05/30 00:45:59;;;;;;;9.98;3.38;;;11.10;99.90;;;;;;5092314;28;20040;-63
2023/05/30 00:48:26;;;;;;;7.63;3.47;;;11.10;99.90;;;;;;5092585;28;20056;-61
2023/05/30 00:50:53;;;;;;;11.00;3.58;;;11.20;99.90;;;;;;5092123;28;20059;-63
2023/05/30 00:53:21;;;;;;;15.07;3.78;;;11.20;99.90;;;;;;5092257;28;20513;-63
2023/05/30 00:55:49;;;;;;;8.98;3.88;;;11.20;99.90;;;;;;5092297;28;20418;-62
2023/05/30 00:58:16;;;;;;;12.85;3.78;;;11.20;99.90;;;;;;5091408;28;20044;-62
2023/05/30 01:00:42;;;;;;;9.90;3.60;;;11.20;99.90;;;;;;5092313;28;20055;-61
2023/05/30 01:03:09;;;;;;;12.73;3.90;;;11.30;99.90;;;;;;5092398;28;20044;-62
2023/05/30 01:05:35;;;;;;;9.98;3.17;;;11.20;99.90;;;;;;5092313;28;20044;-62
2023/05/30 01:08:02;;;;;;;10.20;3.47;;;11.30;99.90;;;;;;5091976;28;20259;-62
2023/05/30 01:10:30;;;;;;;12.63;3.55;;;11.30;99.90;;;;;;5092358;28;20051;-61
2023/05/30 01:13:33;;;;;;;10.98;3.45;;;11.30;99.90;;;;;;5092296;28;20105;-63
2023/05/30 01:16:08;;;;;;;12.43;3.83;;;11.40;99.90;;;;;;5091719;28;20048;-61
2023/05/30 01:18:41;;;;;;;10.60;4.13;;;11.40;99.90;;;;;;5091994;28;20411;-61
2023/05/30 01:21:10;;;;;;;13.15;4.13;;;11.40;99.90;;;;;;5091573;28;20358;-62
2023/05/30 01:24:06;;;;;;;10.32;3.45;;;11.40;99.90;;;;;;5091977;28;20052;-62
2023/05/30 01:26:36;;;;;;;7.25;3.28;;;11.40;99.90;;;;;;5091342;28;20426;-64
2023/05/30 01:29:03;;;;;;;12.57;3.72;;;11.40;99.90;;;;;;5091859;28;20380;-63
2023/05/30 01:31:32;;;;;;;12.35;4.35;;;11.40;99.90;;;;;;5091879;28;20051;-62
2023/05/30 01:34:00;;;;;;;11.10;3.28;;;11.40;99.90;;;;;;5092091;28;20052;-62
2023/05/30 01:36:28;;;;;;;10.98;3.58;;;11.40;99.90;;;;;;5091348;28;20070;-61
2023/05/30 01:38:55;;;;;;;11.05;3.55;;;11.40;99.90;;;;;;5091823;28;20051;-63
2023/05/30 01:41:48;;;;;;;9.50;3.25;;;11.40;99.90;;;;;;5091555;28;20040;-63
2023/05/30 01:44:23;;;;;;;11.75;3.53;;;11.40;99.90;;;;;;5091916;28;20048;-62
2023/05/30 01:47:19;;;;;;;11.70;3.67;;;11.40;99.90;;;;;;5091437;28;20112;-63
2023/05/30 01:50:08;;;;;;;8.95;3.38;;;11.40;99.90;;;;;;5084048;28;20056;-62
2023/05/30 01:52:40;;;;;;;8.20;3.10;;;11.50;99.90;;;;;;5071672;28;20056;-62
2023/05/30 01:55:09;;;;;;;10.88;3.78;;;11.50;99.90;;;;;;5071597;28;20098;-63
2023/05/30 01:57:47;;;;;;;9.75;3.70;;;11.50;99.90;;;;;;5071133;28;20045;-62
2023/05/30 02:00:14;;;;;;;9.02;3.55;;;11.50;99.90;;;;;;5074503;28;21164;-62
2023/05/30 02:02:45;;;;;;;11.80;4.00;;;11.40;99.90;;;;;;5091827;28;20044;-63
2023/05/30 02:05:11;;;;;;;9.57;4.10;;;11.40;99.90;;;;;;5091630;28;20052;-62
2023/05/30 02:07:38;;;;;;;7.07;3.67;;;11.40;99.90;;;;;;5091150;28;20055;-62
2023/05/30 02:10:05;;;;;;;7.85;3.53;;;11.40;99.90;;;;;;5091237;28;20052;-63
2023/05/30 02:12:31;;;;;;;12.85;4.32;;;11.40;99.90;;;;;;5091726;28;20113;-60
2023/05/30 02:14:57;;;;;;;10.25;4.15;;;11.40;99.90;;;;;;5091762;28;20105;-61
2023/05/30 02:17:25;;;;;;;7.25;4.00;;;11.40;99.90;;;;;;5091170;28;20117;-63
2023/05/30 02:19:51;;;;;;;10.80;4.20;;;11.40;99.90;;;;;;5090032;28;20380;-62
2023/05/30 02:22:17;;;;;;;8.60;4.05;;;11.30;99.90;;;;;;5091486;28;20476;-61
2023/05/30 02:24:44;;;;;;;12.15;4.13;;;11.30;99.90;;;;;;5091554;28;20063;-63
2023/05/30 02:27:10;;;;;;;8.43;3.63;;;11.30;99.90;;;;;;5091690;28;20082;-63
2023/05/30 02:29:37;;;;;;;8.93;3.67;;;11.30;99.90;;;;;;5095081;28;20124;-63
2023/05/30 02:32:03;;;;;;;7.45;4.18;;;11.30;99.90;;;;;;5095119;28;20129;-62
2023/05/30 02:34:29;;;;;;;9.35;3.38;;;11.30;99.90;;;;;;5095147;28;20052;-61
2023/05/30 02:36:59;;;;;;;7.40;3.50;;;11.30;99.90;;;;;;5094781;28;20078;-61
2023/05/30 02:39:25;;;;;;;9.60;4.05;;;11.30;99.90;;;;;;5094909;28;20044;-61
2023/05/30 02:41:51;;;;;;;8.07;3.60;;;11.30;99.90;;;;;;5094672;28;20056;-61
2023/05/30 02:44:17;;;;;;;10.18;3.50;;;11.30;99.90;;;;;;5095197;28;20086;-61
2023/05/30 02:46:44;;;;;;;8.05;3.63;;;11.30;99.90;;;;;;5094425;28;20282;-63
2023/05/30 02:49:11;;;;;;;8.95;3.38;;;11.30;99.90;;;;;;5094913;28;20055;-61
2023/05/30 02:51:37;;;;;;;6.72;3.75;;;11.30;99.90;;;;;;5094334;28;20047;-62
2023/05/30 02:54:03;;;;;;;7.10;3.47;;;11.30;99.90;;;;;;5094756;28;20048;-63
2023/05/30 02:56:30;;;;;;;7.63;3.38;;;11.30;99.90;;;;;;5094333;28;20040;-63
2023/05/30 02:58:59;;;;;;;6.18;3.35;;;11.20;99.90;;;;;;5094485;28;20048;-61
2023/05/30 03:01:25;;;;;;;8.40;3.20;;;11.30;99.90;;;;;;5094430;28;20052;-62
2023/05/30 03:03:51;;;;;;;12.70;3.70;;;11.30;99.90;;;;;;5094770;28;20196;-60
2023/05/30 03:06:18;;;;;;;9.85;3.85;;;11.30;99.90;;;;;;5093921;28;20054;-61
2023/05/30 03:08:54;;;;;;;8.73;3.45;;;11.30;99.90;;;;;;5094438;28;20125;-63
2023/05/30 03:11:20;;;;;;;9.68;3.58;;;11.20;99.90;;;;;;5094169;28;20081;-63
2023/05/30 03:13:47;;;;;;;7.60;3.28;;;11.20;99.90;;;;;;5094038;28;20426;-62
2023/05/30 03:16:13;;;;;;;9.85;3.40;;;11.20;99.90;;;;;;5093660;28;20520;-62
2023/05/30 03:18:39;;;;;;;7.25;3.20;;;11.20;99.90;;;;;;5094205;28;20151;-63
2023/05/30 03:21:07;;;;;;;10.23;3.72;;;11.20;99.90;;;;;;5093867;28;20459;-62
2023/05/30 03:23:33;;;;;;;6.97;3.20;;;11.30;99.90;;;;;;5094174;28;20452;-61
2023/05/30 03:25:59;;;;;;;10.80;3.65;;;11.20;99.90;;;;;;5093841;28;20052;-62
2023/05/30 03:28:26;;;;;;;6.85;3.65;;;11.20;99.90;;;;;;5093534;28;20426;-62
2023/05/30 03:30:55;;;;;;;7.78;3.75;;;11.20;99.90;;;;;;5093874;28;20486;-62
2023/05/30 03:33:22;;;;;;;7.55;3.38;;;11.20;99.90;;;;;;5094091;28;20407;-62
2023/05/30 03:35:49;;;;;;;10.23;3.55;;;11.20;99.90;;;;;;5093300;28;20056;-62
2023/05/30 03:38:15;;;;;;;6.80;3.58;;;11.20;99.90;;;;;;5093657;28;20059;-61
2023/05/30 03:40:41;;;;;;;8.55;3.22;;;11.30;99.90;;;;;;5093632;28;20044;-61
2023/05/30 03:43:07;;;;;;;8.30;3.30;;;11.20;99.90;;;;;;5093925;28;20063;-61
2023/05/30 03:45:34;;;;;;;9.90;3.70;;;11.20;99.90;;;;;;5093583;28;20044;-62
2023/05/30 03:48:00;;;;;;;10.10;3.53;;;11.30;99.90;;;;;;5093897;28;20048;-62
2023/05/30 03:50:26;;;;;;;11.32;3.78;;;11.30;99.90;;;;;;5093236;28;20054;-62
2023/05/30 03:52:52;;;;;;;9.45;3.53;;;11.30;99.90;;;;;;5093598;28;20056;-62
2023/05/30 03:55:19;;;;;;;10.88;3.88;;;11.30;99.90;;;;;;5093616;28;20048;-61
2023/05/30 03:57:46;;;;;;;8.02;3.55;;;11.30;99.90;;;;;;5092650;28;20427;-61
2023/05/30 04:00:12;;;;;;;9.23;3.60;;;11.40;99.90;;;;;;5093083;28;20093;-62
2023/05/30 04:02:39;;;;;;;9.63;3.60;;;11.40;99.90;;;;;;5093447;28;20044;-63
2023/05/30 04:05:05;;;;;;;8.32;3.33;;;11.40;99.90;;;;;;5093128;28;20047;-61
2023/05/30 04:07:35;;;;;;;7.82;3.53;;;11.40;99.90;;;;;;5093060;28;20059;-62
2023/05/30 04:10:05;;;;;;;9.55;3.70;;;11.40;99.90;;;;;;5093306;28;20052;-62
2023/05/30 04:12:32;;;;;;;10.90;3.15;;;11.40;99.90;;;;;;5073140;28;20049;-62
2023/05/30 04:14:58;;;;;;;7.80;3.25;;;11.40;99.90;;;;;;5073071;28;20052;-63
2023/05/30 04:17:24;;;;;;;9.85;3.60;;;11.40;99.90;;;;;;5072551;28;20056;-62
2023/05/30 04:19:52;;;;;;;12.48;3.80;;;11.50;99.90;;;;;;5073428;28;20087;-60
2023/05/30 04:22:18;;;;;;;11.50;4.43;;;11.50;99.90;;;;;;5091750;28;20423;-61
2023/05/30 04:24:45;;;;;;;9.05;3.75;;;11.40;99.90;;;;;;5093000;28;20055;-62
2023/05/30 04:27:13;;;;;;;10.70;3.78;;;11.60;99.90;;;;;;5092241;28;20055;-61
2023/05/30 04:29:42;;;;;;;7.80;3.85;;;11.60;99.90;;;;;;5092757;28;20055;-61
2023/05/30 04:32:09;;;;;;;7.63;3.45;;;11.60;99.90;;;;;;5092630;28;20101;-61
2023/05/30 04:34:35;;;;;;;9.25;3.63;;;11.60;99.90;;;;;;5092294;28;20384;-63
2023/05/30 04:37:04;;;;;;;10.75;3.75;;;11.60;99.90;;;;;;5092323;28;20048;-61
2023/05/30 04:39:31;;;;;;;9.18;3.65;;;11.60;99.90;;;;;;5092789;28;20044;-62
2023/05/30 04:41:57;;;;;;;7.55;3.30;;;11.70;99.90;;;;;;5081960;28;20060;-62
2023/05/30 04:44:23;;;;;;;9.95;3.80;;;11.70;99.90;;;;;;5082892;28;20044;-63
2023/05/30 04:46:49;;;;;;;10.93;4.00;;;11.70;99.90;;;;;;5082504;28;20103;-61
2023/05/30 04:49:16;;;;;;;9.90;3.30;;;11.70;99.90;;;;;;5081296;28;20060;-62
2023/05/30 04:51:46;;;;;;;9.63;3.70;;;11.80;99.90;;;;;;5082964;28;20376;-61
2023/05/30 04:54:12;;;;;;;9.63;3.45;;;11.80;99.90;;;;;;5078609;28;20113;-62
2023/05/30 04:56:40;;;;;;;9.27;3.78;;;11.80;99.90;;;;;;5071832;28;20048;-61
2023/05/30 04:59:06;;;;;;;8.68;3.85;;;11.80;99.90;;;;;;5072111;28;20426;-62
2023/05/30 05:01:35;;;;;;;12.25;3.90;;;11.80;99.90;;;;;;5084734;28;20044;-62
2023/05/30 05:04:04;;;;;;;10.13;3.88;;;11.80;99.90;;;;;;5092812;28;20048;-61
2023/05/30 05:06:31;;;;;;;11.00;3.67;;;11.90;99.90;;;;;;5090674;28;20055;-60
2023/05/30 05:08:57;;;;;;;10.10;3.72;;;11.90;99.90;;;;;;5092337;28;20059;-62
2023/05/30 05:11:23;;;;;;;11.40;4.13;;;12.00;99.90;;;;;;5092008;28;20117;-60
2023/05/30 05:13:49;;;;;;;9.85;3.85;;;12.00;99.90;;;;;;5092268;28;20415;-63
2023/05/30 05:16:16;;;;;;;5.35;3.38;;;12.10;99.90;;;;;;5077624;28;20082;-63
2023/05/30 05:18:42;;;;;;;9.40;4.25;;;12.20;99.90;;;;;;5071786;28;20058;-61
2023/05/30 05:21:08;;;;;;;10.30;3.88;;;12.20;99.90;;;;;;5080868;28;20047;-63
2023/05/30 05:23:34;;;;;;;8.50;3.85;;;12.30;99.90;;;;;;5092334;28;20048;-62
2023/05/30 05:26:01;;;;;;;11.48;4.30;;;12.30;99.90;;;;;;5091767;28;20040;-63
2023/05/30 05:28:27;;;;;;;8.27;3.80;;;12.40;99.90;;;;;;5092129;28;20101;-63
2023/05/30 05:30:53;;;;;;;14.48;3.95;;;12.50;99.90;;;;;;5091776;28;20040;-62
2023/05/30 05:33:20;;;;;;;6.75;3.22;;;12.60;99.90;;;;;;5090601;28;20090;-63
2023/05/30 05:35:46;;;;;;;9.90;3.78;;;12.60;99.90;;;;;;5090475;28;20468;-61
2023/05/30 05:38:13;;;;;;;9.23;4.03;;;12.60;99.90;;;;;;5091841;28;20044;-61
2023/05/30 05:40:40;;;;;;;10.75;4.05;;;12.60;99.90;;;;;;5091320;28;20044;-61
2023/05/30 05:43:06;;;;;;;11.75;3.90;;;12.60;99.90;;;;;;5090492;28;20414;-62
2023/05/30 05:45:32;;;;;;;7.93;3.55;;;12.70;99.90;;;;;;5090869;28;20482;-61
2023/05/30 05:47:59;;;;;;;8.95;3.50;;;12.70;99.90;;;;;;5091968;28;20044;-61
2023/05/30 05:50:25;;;;;;;10.27;3.90;;;12.70;99.90;;;;;;5091525;28;20051;-59
2023/05/30 05:52:51;;;;;;;8.60;3.80;;;12.80;99.90;;;;;;5091719;28;20048;-60
2023/05/30 05:55:17;;;;;;;10.15;3.70;;;12.80;99.90;;;;;;5091787;28;20209;-60
2023/05/30 05:57:44;;;;;;;12.32;4.03;;;12.90;99.90;;;;;;5091233;28;20052;-60
2023/05/30 06:00:10;;;;;;;7.85;3.60;;;13.00;99.90;;;;;;5091360;28;20040;-61
2023/05/30 06:02:37;;;;;;;9.75;3.70;;;13.10;99.90;;;;;;5072906;28;20052;-60
2023/05/30 06:05:03;;;;;;;12.00;3.80;;;13.10;99.90;;;;;;5075181;28;20045;-61
2023/05/30 06:07:30;;;;;;;11.98;4.07;;;13.30;99.90;;;;;;5074963;28;20101;-61
2023/05/30 06:09:56;;;;;;;10.55;3.75;;;13.30;99.90;;;;;;5075275;28;20053;-61
2023/05/30 06:12:22;;;;;;;13.55;4.25;;;13.30;99.90;;;;;;5094282;28;20052;-62
2023/05/30 06:14:48;;;;;;;11.10;3.78;;;13.40;99.90;;;;;;5095331;28;20056;-60
2023/05/30 06:17:15;;;;;;;9.50;3.60;;;13.40;99.90;;;;;;5095232;28;20047;-62
2023/05/30 06:19:41;;;;;;;9.77;4.00;;;13.40;99.90;;;;;;5095150;28;20043;-60
2023/05/30 06:22:10;;;;;;;10.68;4.00;;;13.40;99.90;;;;;;5095021;28;20048;-60
2023/05/30 06:24:37;;;;;;;12.25;4.05;;;13.50;99.90;;;;;;5095176;28;20044;-61
2023/05/30 06:27:03;;;;;;;13.65;3.75;;;13.50;99.90;;;;;;5095143;28;20061;-60
2023/05/30 06:29:29;;;;;;;9.15;3.80;;;13.50;99.90;;;;;;5094947;28;20104;-60
2023/05/30 06:31:55;;;;;;;10.80;3.75;;;13.60;99.90;;;;;;5094913;28;20097;-60
2023/05/30 06:34:22;;;;;;;11.98;4.18;;;13.50;99.90;;;;;;5094642;28;20436;-60
2023/05/30 06:36:48;;;;;;;12.30;4.13;;;13.60;99.90;;;;;;5094171;28;20051;-60
2023/05/30 06:39:15;;;;;;;10.85;4.00;;;13.60;99.90;;;;;;5094708;28;20364;-60
2023/05/30 06:41:43;;;;;;;8.57;4.00;;;13.60;99.90;;;;;;5095109;28;20044;-61
2023/05/30 06:44:09;;;;;;;10.27;3.60;;;13.60;99.90;;;;;;5094933;28;20059;-62
2023/05/30 06:46:36;;;;;;;9.35;4.32;;;13.70;99.90;;;;;;5094434;28;20040;-62
2023/05/30 06:49:03;;;;;;;6.15;3.42;;;13.70;99.90;;;;;;5094979;28;20047;-61
2023/05/30 06:51:30;;;;;;;10.95;4.30;;;13.70;99.90;;;;;;5094595;28;20052;-62
2023/05/30 06:53:57;;;;;;;11.55;3.85;;;13.70;99.90;;;;;;5094883;28;20413;-62
2023/05/30 06:56:23;;;;;;;7.85;3.72;;;13.60;99.90;;;;;;5094434;28;20368;-62
2023/05/30 06:58:49;;;;;;;9.82;3.40;;;13.60;99.90;;;;;;5094443;28;20101;-61
2023/05/30 07:01:16;;;;;;;10.30;3.75;;;13.70;99.90;;;;;;5094571;28;20109;-62
2023/05/30 07:03:43;;;;;;;7.72;3.42;;;13.60;99.90;;;;;;5094746;28;20400;-62
2023/05/30 07:06:09;;;;;;;11.35;3.92;;;13.70;99.90;;;;;;5094073;28;20452;-61
2023/05/30 07:08:35;;;;;;;13.60;3.67;;;13.70;99.90;;;;;;5094317;28;20044;-63
2023/05/30 07:11:01;;;;;;;9.35;3.75;;;13.70;99.90;;;;;;5093084;28;20456;-62
2023/05/30 07:13:28;;;;;;;9.40;3.70;;;13.70;99.90;;;;;;5094219;28;20055;-62
2023/05/30 07:15:55;;;;;;;8.95;4.18;;;13.70;99.90;;;;;;5094062;28;20059;-61
2023/05/30 07:18:21;;;;;;;10.18;3.90;;;13.70;99.90;;;;;;5094468;28;20337;-61
2023/05/30 07:20:47;;;;;;;11.65;4.00;;;13.80;99.90;;;;;;5093893;28;20063;-62
2023/05/30 07:23:14;;;;;;;8.25;3.72;;;13.70;99.90;;;;;;5094405;28;20044;-62
2023/05/30 07:25:41;;;;;;;7.15;3.60;;;13.80;99.90;;;;;;5093918;28;20426;-60
2023/05/30 07:28:07;;;;;;;8.27;3.30;;;13.80;99.90;;;;;;5093935;28;20744;-61
2023/05/30 07:30:33;;;;;;;6.78;3.60;;;13.90;99.90;;;;;;5093953;28;20048;-62
2023/05/30 07:32:59;;;;;;;7.85;3.60;;;13.90;99.90;;;;;;5094349;28;20112;-63
2023/05/30 07:35:25;;;;;;;6.85;3.42;;;13.90;99.90;;;;;;5093532;28;20116;-63
2023/05/30 07:37:52;;;;;;;8.65;3.80;;;14.00;99.90;;;;;;5094176;28;20498;-63
2023/05/30 07:40:19;;;;;;;8.00;3.30;;;14.10;99.90;;;;;;5093812;28;20052;-61
2023/05/30 07:42:47;;;;;;;5.38;3.35;;;14.00;99.90;;;;;;5094056;28;20077;-59
2023/05/30 07:45:14;;;;;;;6.40;3.55;;;14.00;99.90;;;;;;5093474;28;20043;-61
2023/05/30 07:47:40;;;;;;;8.05;3.55;;;14.00;99.90;;;;;;5093938;28;20349;-61
2023/05/30 07:50:08;;;;;;;8.25;3.47;;;14.00;99.90;;;;;;5093662;28;20052;-61
2023/05/30 07:52:35;;;;;;;8.05;3.17;;;13.90;99.90;;;;;;5093460;28;20052;-61
2023/05/30 07:55:02;;;;;;;8.55;2.88;;;13.90;99.90;;;;;;5093879;28;20113;-61
2023/05/30 07:57:28;;;;;;;7.22;3.25;;;13.90;99.90;;;;;;5093248;28;20059;-61
2023/05/30 07:59:55;;;;;;;6.88;2.63;;;14.00;99.90;;;;;;5093640;28;20040;-61
2023/05/30 08:02:25;;;;;;;7.72;2.60;;;14.00;99.90;;;;;;5093243;28;20423;-63
2023/05/30 08:04:52;;;;;;;7.60;3.20;;;14.00;99.90;;;;;;5093455;28;20101;-61
2023/05/30 08:07:19;;;;;;;6.28;3.13;;;13.90;99.90;;;;;;5093205;28;20047;-62
2023/05/30 08:09:45;;;;;;;7.32;2.80;;;13.80;99.90;;;;;;5093478;28;20101;-63
2023/05/30 08:12:19;;;;;;;7.20;3.13;;;13.80;99.90;;;;;;5093151;28;20131;-62
2023/05/30 08:14:47;;;;;;;5.88;2.70;;;13.90;99.90;;;;;;5093467;28;20051;-63
2023/05/30 08:17:15;;;;;;;7.10;2.70;;;13.90;99.90;;;;;;5093120;28;20048;-62
2023/05/30 08:19:44;;;;;;;6.88;3.10;;;13.80;99.90;;;;;;5092880;28;20444;-63
2023/05/30 08:22:11;;;;;;;6.95;3.15;;;13.80;99.90;;;;;;5093090;28;20080;-62
2023/05/30 08:24:37;;;;;;;8.00;2.83;;;13.90;99.90;;;;;;5092559;28;20101;-62
2023/05/30 08:27:04;;;;;;;9.50;3.50;;;14.00;99.90;;;;;;5092838;28;20348;-61
2023/05/30 08:29:31;;;;;;;5.30;3.20;;;14.00;99.90;;;;;;5093141;28;20109;-61
2023/05/30 08:31:58;;;;;;;8.35;3.53;;;14.00;99.90;;;;;;5092955;28;20055;-63
2023/05/30 08:34:24;;;;;;;7.75;3.05;;;14.00;99.90;;;;;;5091850;28;20461;-62
2023/05/30 08:36:55;;;;;;;7.40;2.97;;;13.90;99.90;;;;;;5092249;28;20383;-63
2023/05/30 08:39:22;;;;;;;8.32;3.30;;;13.90;99.90;;;;;;5092836;28;20040;-59
2023/05/30 08:41:48;;;;;;;6.13;2.90;;;14.00;99.90;;;;;;5092572;28;20063;-62
2023/05/30 08:44:14;;;;;;;8.63;3.30;;;14.00;99.90;;;;;;5092959;28;20447;-61
2023/05/30 08:46:42;;;;;;;6.93;3.17;;;14.00;99.90;;;;;;5092272;28;20044;-60
2023/05/30 08:49:13;;;;;;;7.72;3.17;;;14.10;99.90;;;;;;5092634;28;20071;-61
2023/05/30 08:51:42;;;;;;;8.18;3.25;;;14.10;99.90;;;;;;5092506;28;20052;-61
2023/05/30 08:54:16;;;;;;;7.60;3.30;;;14.20;99.90;;;;;;5092714;28;20055;-61
2023/05/30 08:56:47;;;;;;;8.20;2.97;;;14.20;99.90;;;;;;5091074;28;20468;-60
2023/05/30 08:59:17;;;;;;;5.45;3.00;;;14.30;99.90;;;;;;5092569;28;20059;-62
2023/05/30 09:01:44;;;;;;;8.85;3.47;;;14.30;99.90;;;;;;5092456;28;20040;-62
2023/05/30 09:04:13;;;;;;;6.40;2.85;;;14.30;99.90;;;;;;5092609;28;20444;-62
2023/05/30 09:06:40;;;;;;;6.07;2.80;;;14.30;99.90;;;;;;5091950;28;20048;-61
2023/05/30 09:09:09;;;;;;;6.25;2.63;;;14.30;99.90;;;;;;5092596;28;20048;-61
2023/05/30 09:11:36;;;;;;;4.85;2.78;;;14.40;99.90;;;;;;5092525;28;20051;-60
2023/05/30 09:14:03;;;;;;;6.53;2.33;;;14.50;99.90;;;;;;5092316;28;20048;-63
2023/05/30 09:16:30;;;;;;;4.30;2.53;;;14.50;99.90;;;;;;5092227;28;20087;-62
2023/05/30 09:18:56;;;;;;;8.85;3.20;;;14.50;99.90;;;;;;5092252;28;20052;-62
2023/05/30 09:21:22;;;;;;;5.65;2.50;;;14.60;99.90;;;;;;5091955;28;20044;-61
2023/05/30 09:23:50;;;;;;;5.57;2.85;;;14.80;99.90;;;;;;5092401;28;20044;-61
2023/05/30 09:26:18;;;;;;;5.75;2.80;;;14.80;99.90;;;;;;5091818;28;20051;-61
2023/05/30 09:28:46;;;;;;;7.18;2.58;;;14.90;99.90;;;;;;5092152;28;20066;-61
2023/05/30 09:31:14;;;;;;;8.02;2.90;;;14.90;99.90;;;;;;5092429;28;20101;-61
2023/05/30 09:33:42;;;;;;;5.10;3.08;;;15.00;99.90;;;;;;5092175;28;20058;-61
2023/05/30 09:36:08;;;;;;;6.03;3.15;;;15.00;99.90;;;;;;5092698;28;20064;-61
2023/05/30 09:38:34;;;;;;;7.55;2.72;;;14.90;99.90;;;;;;5098719;28;20063;-62
2023/05/30 09:41:05;;;;;;;8.35;3.13;;;14.90;99.90;;;;;;5098557;28;20040;-62
2023/05/30 09:43:34;;;;;;;5.07;3.22;;;14.90;99.90;;;;;;5098897;28;20040;-62
2023/05/30 09:46:03;;;;;;;5.93;3.03;;;14.90;99.90;;;;;;5098576;28;20044;-63
2023/05/30 09:48:30;;;;;;;7.57;3.42;;;14.80;99.90;;;;;;5098352;28;20464;-63
2023/05/30 09:51:00;;;;;;;6.63;3.20;;;14.80;99.90;;;;;;5098085;28;20410;-61
2023/05/30 09:53:32;;;;;;;5.22;2.83;;;14.70;99.90;;;;;;5099057;28;20097;-63
2023/05/30 09:55:59;;;;;;;8.30;3.08;;;14.80;99.90;;;;;;5098383;28;20047;-61
2023/05/30 09:58:25;;;;;;;4.93;3.00;;;14.90;99.90;;;;;;5098712;28;20051;-61
2023/05/30 10:00:54;;;;;;;5.57;2.50;;;15.00;99.90;;;;;;5098818;28;20050;-63
2023/05/30 10:03:39;;;;;;;4.72;2.90;;;15.00;99.90;;;;;;5099058;28;20048;-62
2023/05/30 10:06:15;;;;;;;3.58;2.30;;;14.90;99.90;;;;;;5098180;28;20055;-62
2023/05/30 10:08:44;;;;;;;4.60;2.33;;;14.90;99.90;;;;;;5098754;28;20048;-63
2023/05/30 10:11:12;;;;;;;4.38;2.60;;;15.00;99.90;;;;;;5098486;28;20074;-61
2023/05/30 10:13:40;;;;;;;4.43;2.75;;;15.00;99.90;;;;;;5098975;28;20154;-62
2023/05/30 10:16:14;;;;;;;4.97;2.60;;;15.10;99.90;;;;;;5098317;28;20048;-61
2023/05/30 10:18:52;;;;;;;4.63;2.80;;;15.20;99.90;;;;;;5098511;28;20059;-63
2023/05/30 10:21:25;;;;;;;3.95;2.72;;;15.20;99.90;;;;;;5098213;28;20414;-61
2023/05/30 10:23:54;;;;;;;5.03;2.60;;;15.30;99.90;;;;;;5098668;28;20048;-61
2023/05/30 10:26:27;;;;;;;5.65;2.72;;;15.30;99.90;;;;;;5097761;28;20417;-63
2023/05/30 10:28:55;;;;;;;3.88;2.78;;;15.30;99.90;;;;;;5098044;28;20464;-62
2023/05/30 10:31:24;;;;;;;5.00;2.67;;;15.40;99.90;;;;;;5098210;28;20063;-63
2023/05/30 10:33:52;;;;;;;3.60;2.40;;;15.40;99.90;;;;;;5098480;28;20070;-63
2023/05/30 10:36:20;;;;;;;4.60;2.70;;;15.40;99.90;;;;;;5097777;28;20059;-61
2023/05/30 10:38:54;;;;;;;3.38;2.13;;;15.40;99.90;;;;;;5098147;28;20525;-63
2023/05/30 10:41:28;;;;;;;3.25;2.13;;;15.50;99.90;;;;;;5098331;28;20048;-63
2023/05/30 10:44:12;;;;;;;7.40;2.25;;;15.50;99.90;;;;;;5098548;28;20052;-61
2023/05/30 10:47:04;;;;;;;6.35;2.30;;;15.50;99.90;;;;;;5097924;28;20052;-62
2023/05/30 10:49:31;;;;;;;6.22;2.70;;;15.40;99.90;;;;;;5094591;28;20044;-61
2023/05/30 10:52:03;;;;;;;5.53;2.35;;;15.40;99.90;;;;;;5095001;28;20063;-62
2023/05/30 10:54:34;;;;;;;7.07;2.60;;;15.40;99.90;;;;;;5095148;28;20055;-63
2023/05/30 10:57:30;;;;;;;;;;;15.40;99.90;;;;;;5095227;28;20117;-63
2023/05/30 11:00:09;;;;;;;7.35;2.30;;;15.40;99.90;;;;;;5095232;28;19924;-62
2023/05/30 11:02:37;;;;;;;4.68;2.42;;;15.60;99.90;;;;;;5094733;28;20109;-61
2023/05/30 11:05:08;;;;;;;3.38;2.10;;;15.70;99.90;;;;;;5094343;28;20044;-61
2023/05/30 11:07:39;;;;;;;3.30;2.10;;;15.70;99.90;;;;;;5094845;28;20040;-61
2023/05/30 11:10:07;;;;;;;3.05;1.73;;;15.70;99.90;;;;;;5095218;28;20052;-62
2023/05/30 11:12:42;;;;;;;3.72;2.10;;;15.80;99.90;;;;;;5094402;28;20060;-63
2023/05/30 11:15:09;;;;;;;3.95;2.35;;;15.60;99.90;;;;;;5094280;28;20087;-63
2023/05/30 11:17:37;;;;;;;4.32;2.33;;;15.50;99.90;;;;;;5094520;28;20063;-62
2023/05/30 11:20:12;;;;;;;3.55;2.10;;;15.60;99.90;;;;;;5094154;28;20048;-62
2023/05/30 11:22:38;;;;;;;4.88;2.20;;;15.50;99.90;;;;;;5094211;28;20048;-61
2023/05/30 11:25:16;;;;;;;2.53;2.10;;;15.40;99.90;;;;;;5093986;28;20050;-61
2023/05/30 11:28:05;;;;;;;3.97;2.17;;;15.40;99.90;;;;;;5094311;28;20044;-62
2023/05/30 11:30:37;;;;;;;3.20;1.88;;;15.40;99.90;;;;;;5093800;28;20060;-64
2023/05/30 11:33:08;;;;;;;3.53;1.95;;;15.40;99.90;;;;;;5094630;28;20052;-63
2023/05/30 11:35:35;;;;;;;4.65;1.92;;;15.40;99.90;;;;;;5094049;28;20052;-61
2023/05/30 11:38:01;;;;;;;4.07;2.08;;;15.30;99.90;;;;;;5094240;28;20067;-64
2023/05/30 11:40:30;;;;;;;2.70;1.85;;;15.40;99.90;;;;;;5094028;28;20043;-63
2023/05/30 11:42:57;;;;;;;2.83;1.70;;;15.50;99.90;;;;;;5073938;28;20508;-62
2023/05/30 11:45:26;;;;;;;3.10;2.00;;;15.60;99.90;;;;;;5073296;28;20048;-62
2023/05/30 11:47:52;;;;;;;3.03;2.45;;;15.80;99.90;;;;;;5073586;28;20049;-62
2023/05/30 11:50:21;;;;;;;2.45;1.73;;;15.90;99.90;;;;;;5073474;28;20492;-60
2023/05/30 11:52:47;;;;;;;2.40;1.60;;;16.00;99.90;;;;;;5093380;28;20090;-61
2023/05/30 11:55:14;;;;;;;2.97;1.70;;;16.10;99.90;;;;;;5093422;28;20380;-61
2023/05/30 11:57:40;;;;;;;3.10;1.95;;;16.10;99.90;;;;;;5093598;28;20460;-61
2023/05/30 12:00:11;;;;;;;1.92;1.33;;;16.00;99.90;;;;;;5091632;28;20055;-63
2023/05/30 12:02:38;;;;;;;2.80;1.50;;;16.00;99.90;;;;;;5093434;28;20040;-60
2023/05/30 12:05:05;;;;;;;2.30;1.70;;;16.10;99.90;;;;;;5093064;28;20478;-60
2023/05/30 12:07:32;;;;;;;3.42;1.90;;;16.20;99.90;;;;;;5093691;28;20051;-60
2023/05/30 12:09:58;;;;;;;3.03;1.80;;;16.30;99.90;;;;;;5093704;28;20048;-61
2023/05/30 12:12:26;;;;;;;3.00;2.05;;;16.30;99.90;;;;;;5093313;28;20063;-61
2023/05/30 12:14:55;;;;;;;2.10;1.60;;;16.40;99.90;;;;;;5093046;28;20054;-63
2023/05/30 12:17:24;;;;;;;3.38;1.40;;;16.40;99.90;;;;;;5093478;28;20047;-63
2023/05/30 12:19:55;;;;;;;2.40;1.55;;;16.30;99.90;;;;;;5092994;28;20051;-61
2023/05/30 12:22:23;;;;;;;2.75;1.55;;;16.20;99.90;;;;;;5092704;28;20556;-61
2023/05/30 12:24:50;;;;;;;3.42;1.83;;;16.20;99.90;;;;;;5092890;28;20043;-61
2023/05/30 12:27:20;;;;;;;5.68;1.70;;;16.10;99.90;;;;;;5091997;28;20356;-61
2023/05/30 12:29:46;;;;;;;2.10;1.70;;;16.10;99.90;;;;;;5092755;28;20113;-61
2023/05/30 12:32:12;;;;;;;3.40;1.80;;;16.10;99.90;;;;;;5092755;28;20056;-61
2023/05/30 12:34:43;;;;;;;2.63;1.65;;;16.20;99.90;;;;;;5092909;28;20357;-63
2023/05/30 12:37:11;;;;;;;2.55;1.80;;;16.10;99.90;;;;;;5093150;28;20048;-60
2023/05/30 12:39:49;;;;;;;2.58;1.83;;;16.10;99.90;;;;;;5092888;28;20117;-61
2023/05/30 12:42:21;;;;;;;3.97;1.92;;;16.30;99.90;;;;;;5092527;28;20040;-62
2023/05/30 12:44:58;;;;;;;2.58;1.88;;;16.30;99.90;;;;;;5092647;28;20040;-62
2023/05/30 12:47:26;;;;;;;2.15;1.60;;;16.30;99.90;;;;;;5092814;28;20048;-62
2023/05/30 12:49:53;;;;;;;2.75;1.90;;;16.30;99.90;;;;;;5092648;28;20052;-62
2023/05/30 12:52:21;;;;;;;2.65;1.85;;;16.40;99.90;;;;;;5092647;28;20054;-62